Time;durP1;ratioP1;P1;durP2;ratioP2;P2;SDS_P1;SDS_P2;PMS_P1;PMS_P2;Temp;Humidity;BMP_temperature;BMP_pressure;BME280_temperature;BME280_humidity;BME280_pressure;Samples;Min_cycle;Max_cycle;Signal;HPM_P1;HPM_P2
2022/02/17 00:00:03;;;;;;;0.10;0.10;;;;;;;;;;5008419;28;20589;-77
2022/02/17 00:02:30;;;;;;;0.17;0.10;;;;;;;;;;5013019;28;20254;-76
2022/02/17 00:04:57;;;;;;;0.00;0.00;;;;;;;;;;5009229;28;20223;-77
2022/02/17 00:07:24;;;;;;;0.60;0.30;;;;;;;;;;5008931;28;20542;-76
2022/02/17 00:09:51;;;;;;;0.10;0.10;;;;;;;;;;5010367;28;20469;-77
2022/02/17 00:12:20;;;;;;;0.10;0.10;;;;;;;;;;5010871;28;20751;-77
2022/02/17 00:14:47;;;;;;;2.00;0.30;;;;;;;;;;5011190;28;20215;-78
2022/02/17 00:17:14;;;;;;;1.47;0.30;;;;;;;;;;5012404;28;20608;-75
2022/02/17 00:19:41;;;;;;;0.20;0.10;;;;;;;;;;5011156;28;20809;-77
2022/02/17 00:22:08;;;;;;;0.20;0.20;;;;;;;;;;5011904;28;20537;-77
2022/02/17 00:24:36;;;;;;;0.30;0.20;;;;;;;;;;5015067;28;20235;-78
2022/02/17 00:27:03;;;;;;;1.23;0.20;;;;;;;;;;5010114;28;20250;-77
2022/02/17 00:29:31;;;;;;;0.20;0.20;;;;;;;;;;5013180;28;20207;-77
2022/02/17 00:31:58;;;;;;;0.50;0.33;;;;;;;;;;5010222;28;20815;-77
2022/02/17 00:34:26;;;;;;;0.70;0.30;;;;;;;;;;5012845;28;20210;-76
2022/02/17 00:36:53;;;;;;;0.57;0.30;;;;;;;;;;5017908;28;20999;-76
2022/02/17 00:39:21;;;;;;;0.83;0.30;;;;;;;;;;5014687;28;20204;-78
2022/02/17 00:41:49;;;;;;;5.17;0.33;;;;;;;;;;5012037;28;20204;-77
2022/02/17 00:44:16;;;;;;;2.20;0.30;;;;;;;;;;5012397;28;20198;-76
2022/02/17 00:46:44;;;;;;;1.00;0.20;;;;;;;;;;5013243;28;20228;-77
2022/02/17 00:49:12;;;;;;;0.40;0.20;;;;;;;;;;5018310;28;20786;-77
2022/02/17 00:51:39;;;;;;;0.93;0.23;;;;;;;;;;5015959;28;20200;-78
2022/02/17 00:54:06;;;;;;;0.87;0.30;;;;;;;;;;5016727;28;20290;-75
2022/02/17 00:56:33;;;;;;;2.00;0.33;;;;;;;;;;5014296;28;20297;-77
2022/02/17 00:59:01;;;;;;;0.50;0.20;;;;;;;;;;5013423;28;20240;-77
2022/02/17 01:01:28;;;;;;;0.30;0.20;;;;;;;;;;5014711;28;20204;-77
2022/02/17 01:03:57;;;;;;;1.70;0.13;;;;;;;;;;5014776;28;20283;-76
2022/02/17 01:06:24;;;;;;;1.53;0.40;;;;;;;;;;5014974;28;20234;-75
2022/02/17 01:08:51;;;;;;;1.90;0.30;;;;;;;;;;5014956;28;20753;-78
2022/02/17 01:11:18;;;;;;;0.40;0.20;;;;;;;;;;5016853;28;20650;-77
2022/02/17 01:13:45;;;;;;;2.03;0.20;;;;;;;;;;5014151;28;20208;-78
2022/02/17 01:16:12;;;;;;;0.10;0.10;;;;;;;;;;5017173;28;20274;-77
2022/02/17 01:18:40;;;;;;;2.00;0.10;;;;;;;;;;5015963;28;20246;-77
2022/02/17 01:21:08;;;;;;;0.00;0.00;;;;;;;;;;5015464;28;20781;-77
2022/02/17 01:23:35;;;;;;;0.97;0.20;;;;;;;;;;5016608;28;20275;-79
2022/02/17 01:26:02;;;;;;;0.73;0.30;;;;;;;;;;5018863;28;20303;-75
2022/02/17 01:28:30;;;;;;;1.60;0.10;;;;;;;;;;5013552;28;20258;-77
2022/02/17 01:30:57;;;;;;;0.10;0.10;;;;;;;;;;5015102;28;20212;-75
2022/02/17 01:33:24;;;;;;;0.93;0.10;;;;;;;;;;5013166;28;20200;-78
2022/02/17 01:35:51;;;;;;;0.70;0.10;;;;;;;;;;5011589;28;20228;-76
2022/02/17 01:38:21;;;;;;;0.47;0.10;;;;;;;;;;5014318;28;20574;-77
2022/02/17 01:40:50;;;;;;;0.10;0.10;;;;;;;;;;5015898;28;20300;-77
2022/02/17 01:43:18;;;;;;;0.73;0.10;;;;;;;;;;5012541;28;20311;-77
2022/02/17 01:45:45;;;;;;;1.10;0.20;;;;;;;;;;5011240;28;20450;-76
2022/02/17 01:48:13;;;;;;;0.77;0.40;;;;;;;;;;5011253;28;20200;-78
2022/02/17 01:50:41;;;;;;;0.30;0.20;;;;;;;;;;5013839;28;20349;-78
2022/02/17 01:53:08;;;;;;;0.47;0.20;;;;;;;;;;5013746;28;20482;-78
2022/02/17 01:55:37;;;;;;;0.73;0.40;;;;;;;;;;5015254;28;20244;-77
2022/02/17 01:58:05;;;;;;;0.40;0.20;;;;;;;;;;5013385;28;20267;-77
2022/02/17 02:00:32;;;;;;;2.60;0.50;;;;;;;;;;5012948;28;20230;-78
2022/02/17 02:02:59;;;;;;;0.77;0.30;;;;;;;;;;5009842;28;20506;-78
2022/02/17 02:05:26;;;;;;;2.23;0.20;;;;;;;;;;5013629;28;20201;-78
2022/02/17 02:07:54;;;;;;;1.83;0.30;;;;;;;;;;5013984;28;20746;-76
2022/02/17 02:10:22;;;;;;;1.13;0.30;;;;;;;;;;5013521;28;20204;-78
2022/02/17 02:12:50;;;;;;;5.83;0.70;;;;;;;;;;5011886;28;20247;-78
2022/02/17 02:15:17;;;;;;;4.60;0.67;;;;;;;;;;5014430;28;20208;-77
2022/02/17 02:17:45;;;;;;;2.53;0.63;;;;;;;;;;5011378;28;20462;-78
2022/02/17 02:20:16;;;;;;;4.45;0.60;;;;;;;;;;5014021;28;20445;-79
2022/02/17 02:22:43;;;;;;;4.87;0.80;;;;;;;;;;5013389;28;20584;-76
2022/02/17 02:25:11;;;;;;;1.70;0.50;;;;;;;;;;5012663;28;20689;-74
2022/02/17 02:27:38;;;;;;;6.37;0.77;;;;;;;;;;5014094;28;20220;-77
2022/02/17 02:30:06;;;;;;;3.20;0.67;;;;;;;;;;5010800;28;20676;-78
2022/02/17 02:32:33;;;;;;;2.13;0.50;;;;;;;;;;5013325;28;20680;-75
2022/02/17 02:35:00;;;;;;;2.13;0.50;;;;;;;;;;5010565;28;20773;-77
2022/02/17 02:37:28;;;;;;;4.87;0.80;;;;;;;;;;5011626;28;20252;-77
2022/02/17 02:39:56;;;;;;;5.37;0.70;;;;;;;;;;5012107;28;20476;-79
2022/02/17 02:42:24;;;;;;;4.60;0.77;;;;;;;;;;5013474;28;20568;-74
2022/02/17 02:44:51;;;;;;;4.87;0.90;;;;;;;;;;5012131;28;20221;-77
2022/02/17 02:47:18;;;;;;;9.80;1.00;;;;;;;;;;5007798;28;20228;-77
2022/02/17 02:49:45;;;;;;;3.63;0.68;;;;;;;;;;5011900;28;20815;-75
2022/02/17 02:52:12;;;;;;;5.60;0.70;;;;;;;;;;5009507;28;20211;-77
2022/02/17 02:54:41;;;;;;;6.13;1.00;;;;;;;;;;5009842;28;20540;-75
2022/02/17 02:57:08;;;;;;;4.60;0.73;;;;;;;;;;5010693;28;20224;-75
2022/02/17 02:59:36;;;;;;;4.07;0.97;;;;;;;;;;5008826;28;20247;-77
2022/02/17 03:02:03;;;;;;;3.93;1.00;;;;;;;;;;5010448;28;20294;-76
2022/02/17 03:04:30;;;;;;;5.13;0.83;;;;;;;;;;5010586;28;20215;-77
2022/02/17 03:06:57;;;;;;;12.50;1.55;;;;;;;;;;5008331;28;20463;-78
2022/02/17 03:09:24;;;;;;;8.13;1.47;;;;;;;;;;5010037;28;20203;-76
2022/02/17 03:11:53;;;;;;;9.40;1.10;;;;;;;;;;5010644;28;20291;-78
2022/02/17 03:14:20;;;;;;;6.37;1.03;;;;;;;;;;5013090;28;20200;-76
2022/02/17 03:16:47;;;;;;;7.93;1.60;;;;;;;;;;5012020;28;20730;-78
2022/02/17 03:19:14;;;;;;;9.25;1.67;;;;;;;;;;5010405;28;20470;-77
2022/02/17 03:21:41;;;;;;;9.60;1.90;;;;;;;;;;5016546;28;20540;-78
2022/02/17 03:24:08;;;;;;;7.60;1.60;;;;;;;;;;5011283;28;20208;-78
2022/02/17 03:26:36;;;;;;;9.17;1.90;;;;;;;;;;5011574;28;20235;-77
2022/02/17 03:29:04;;;;;;;9.07;1.60;;;;;;;;;;5008484;28;20283;-77
2022/02/17 03:31:32;;;;;;;9.10;1.40;;;;;;;;;;5010563;28;20240;-77
2022/02/17 03:33:59;;;;;;;12.20;2.03;;;;;;;;;;5011874;28;20713;-78
2022/02/17 03:36:26;;;;;;;17.97;1.77;;;;;;;;;;5014689;28;20266;-77
2022/02/17 03:38:56;;;;;;;12.53;2.03;;;;;;;;;;5010952;28;20231;-78
2022/02/17 03:41:23;;;;;;;17.73;2.27;;;;;;;;;;5008717;28;21034;-76
2022/02/17 03:43:50;;;;;;;15.80;2.20;;;;;;;;;;5009131;28;20258;-76
2022/02/17 03:46:18;;;;;;;14.90;1.87;;;;;;;;;;5010149;28;20303;-76
2022/02/17 03:48:46;;;;;;;13.57;2.30;;;;;;;;;;5012155;28;20455;-78
2022/02/17 03:51:13;;;;;;;14.83;1.93;;;;;;;;;;5014737;28;20207;-78
2022/02/17 03:53:40;;;;;;;12.32;2.00;;;;;;;;;;5014583;28;20965;-78
2022/02/17 03:56:07;;;;;;;13.60;1.87;;;;;;;;;;5008636;28;20303;-79
2022/02/17 04:01:20;;;;;;;11.23;2.27;;;;;;;;;;5009531;28;20223;-79
2022/02/17 04:03:47;;;;;;;12.47;1.53;;;;;;;;;;5013926;28;20207;-79
2022/02/17 04:06:15;;;;;;;11.13;2.00;;;;;;;;;;5011681;28;20262;-78
2022/02/17 04:08:42;;;;;;;15.97;2.30;;;;;;;;;;5011682;28;20231;-77
2022/02/17 04:11:09;;;;;;;16.65;2.63;;;;;;;;;;5012237;28;20562;-78
2022/02/17 04:13:36;;;;;;;16.52;2.92;;;;;;;;;;5012310;28;21027;-78
2022/02/17 04:16:03;;;;;;;12.90;2.07;;;;;;;;;;5012394;28;20224;-79
2022/02/17 04:18:32;;;;;;;17.03;2.73;;;;;;;;;;5011852;28;20317;-78
2022/02/17 04:20:59;;;;;;;19.97;3.07;;;;;;;;;;5010375;28;20223;-78
2022/02/17 04:23:26;;;;;;;13.87;2.43;;;;;;;;;;5010359;28;20197;-77
2022/02/17 04:25:54;;;;;;;15.17;1.93;;;;;;;;;;5010687;28;20232;-79
2022/02/17 04:28:21;;;;;;;16.47;2.63;;;;;;;;;;5009375;28;20295;-77
2022/02/17 04:30:48;;;;;;;19.27;2.40;;;;;;;;;;5010307;28;20203;-78
2022/02/17 04:33:15;;;;;;;15.02;2.33;;;;;;;;;;5009397;28;20555;-78
2022/02/17 04:35:44;;;;;;;16.70;1.93;;;;;;;;;;5012993;28;20239;-78
2022/02/17 04:38:11;;;;;;;11.40;1.63;;;;;;;;;;5011717;28;20290;-75
2022/02/17 04:43:23;;;;;;;21.23;3.15;;;;;;;;;;5006333;28;20797;-76
2022/02/17 04:45:50;;;;;;;15.33;2.03;;;;;;;;;;5011249;28;20319;-77
2022/02/17 04:48:17;;;;;;;13.00;2.67;;;;;;;;;;5011172;28;20640;-77
2022/02/17 04:50:45;;;;;;;20.70;3.13;;;;;;;;;;5007287;28;20547;-77
2022/02/17 04:53:13;;;;;;;13.63;2.77;;;;;;;;;;5010243;28;20283;-76
2022/02/17 04:55:40;;;;;;;16.73;2.10;;;;;;;;;;5010521;28;20216;-78
2022/02/17 04:58:07;;;;;;;10.77;1.77;;;;;;;;;;5007574;28;20226;-76
2022/02/17 05:00:34;;;;;;;12.40;1.83;;;;;;;;;;5009547;28;20234;-77
2022/02/17 05:03:01;;;;;;;17.80;2.67;;;;;;;;;;5006957;28;20805;-77
2022/02/17 05:05:28;;;;;;;11.93;2.17;;;;;;;;;;5010701;28;20784;-77
2022/02/17 05:07:57;;;;;;;12.90;1.63;;;;;;;;;;5010236;28;20570;-77
2022/02/17 05:10:24;;;;;;;21.10;3.13;;;;;;;;;;5007129;28;20295;-76
2022/02/17 05:12:51;;;;;;;22.77;2.77;;;;;;;;;;5011103;28;20210;-77
2022/02/17 05:15:18;;;;;;;15.63;2.03;;;;;;;;;;5011052;28;20250;-77
2022/02/17 05:17:46;;;;;;;24.13;2.73;;;;;;;;;;5007135;28;20622;-76
2022/02/17 05:20:14;;;;;;;29.47;3.30;;;;;;;;;;5011173;28;20331;-77
2022/02/17 05:22:42;;;;;;;24.80;2.70;;;;;;;;;;5014229;28;20204;-77
2022/02/17 05:25:12;;;;;;;12.57;2.83;;;;;;;;;;5011886;28;20215;-77
2022/02/17 05:27:39;;;;;;;21.00;3.17;;;;;;;;;;5010468;28;20581;-77
2022/02/17 05:30:07;;;;;;;22.43;2.77;;;;;;;;;;5013574;28;20251;-75
2022/02/17 05:32:39;;;;;;;16.20;2.07;;;;;;;;;;5011937;28;20218;-78
2022/02/17 05:35:07;;;;;;;15.23;2.73;;;;;;;;;;5014421;28;20202;-78
2022/02/17 05:37:38;;;;;;;16.90;2.70;;;;;;;;;;5014330;28;20218;-80
2022/02/17 05:40:06;;;;;;;22.47;3.13;;;;;;;;;;5012953;28;20224;-77
2022/02/17 05:42:35;;;;;;;15.17;2.40;;;;;;;;;;5013681;28;20210;-76
2022/02/17 05:45:02;;;;;;;15.83;2.57;;;;;;;;;;5014488;28;20212;-78
2022/02/17 05:47:29;;;;;;;12.77;2.27;;;;;;;;;;5014251;28;20226;-74
2022/02/17 05:49:56;;;;;;;22.27;3.53;;;;;;;;;;5014686;28;20235;-76
2022/02/17 05:52:23;;;;;;;23.45;3.65;;;;;;;;;;5010531;28;20469;-77
2022/02/17 05:54:51;;;;;;;24.80;2.90;;;;;;;;;;5014203;28;20295;-77
2022/02/17 05:57:18;;;;;;;21.33;3.20;;;;;;;;;;5015475;28;20315;-78
2022/02/17 05:59:46;;;;;;;15.50;3.10;;;;;;;;;;5013715;28;20486;-78
2022/02/17 06:02:14;;;;;;;19.20;2.90;;;;;;;;;;5012104;28;20200;-77
2022/02/17 06:04:43;;;;;;;15.07;2.67;;;;;;;;;;5014865;28;20208;-77
2022/02/17 06:07:10;;;;;;;25.10;3.00;;;;;;;;;;5012474;28;20230;-76
2022/02/17 06:09:38;;;;;;;21.77;3.55;;;;;;;;;;5012691;28;20454;-77
2022/02/17 06:12:05;;;;;;;12.50;2.60;;;;;;;;;;5011040;28;20733;-77
2022/02/17 06:14:32;;;;;;;17.23;2.70;;;;;;;;;;5007476;28;20303;-78
2022/02/17 06:17:01;;;;;;;12.70;2.03;;;;;;;;;;5014262;28;20722;-77
2022/02/17 06:19:28;;;;;;;16.77;2.33;;;;;;;;;;5010013;28;20224;-78
2022/02/17 06:21:55;;;;;;;27.90;2.83;;;;;;;;;;5014567;28;20211;-77
2022/02/17 06:24:22;;;;;;;22.37;2.90;;;;;;;;;;5015306;28;20287;-77
2022/02/17 06:26:49;;;;;;;15.67;2.63;;;;;;;;;;5010760;28;20261;-77
2022/02/17 06:29:16;;;;;;;12.80;1.73;;;;;;;;;;5008469;28;20283;-77
2022/02/17 06:31:44;;;;;;;16.47;2.20;;;;;;;;;;5012114;28;20204;-78
2022/02/17 06:34:13;;;;;;;19.80;3.17;;;;;;;;;;5012470;28;20208;-77
2022/02/17 06:36:41;;;;;;;24.60;3.37;;;;;;;;;;5011936;28;20260;-77
2022/02/17 06:39:08;;;;;;;26.40;3.13;;;;;;;;;;5014422;28;20232;-77
2022/02/17 06:41:35;;;;;;;25.00;3.07;;;;;;;;;;5009640;28;20292;-78
2022/02/17 06:44:03;;;;;;;38.83;4.13;;;;;;;;;;5005050;28;20460;-77
2022/02/17 06:46:30;;;;;;;25.70;3.30;;;;;;;;;;5009930;28;20788;-77
2022/02/17 06:48:57;;;;;;;17.67;2.67;;;;;;;;;;5003587;28;20216;-77
2022/02/17 06:51:25;;;;;;;27.50;3.43;;;;;;;;;;5007882;28;20565;-77
2022/02/17 06:53:53;;;;;;;30.87;3.37;;;;;;;;;;5013727;28;20760;-78
2022/02/17 06:56:22;;;;;;;30.83;3.13;;;;;;;;;;5013282;28;20220;-76
2022/02/17 06:58:49;;;;;;;26.57;3.20;;;;;;;;;;5012040;28;20809;-78
2022/02/17 07:01:16;;;;;;;28.70;3.47;;;;;;;;;;5012169;28;20495;-77
2022/02/17 07:03:43;;;;;;;19.37;3.40;;;;;;;;;;5010937;28;20305;-78
2022/02/17 07:06:10;;;;;;;26.47;3.47;;;;;;;;;;5013457;28;20347;-77
2022/02/17 07:08:39;;;;;;;23.37;3.23;;;;;;;;;;5014889;28;20250;-78
2022/02/17 07:11:06;;;;;;;25.07;2.97;;;;;;;;;;5015169;28;20211;-76
2022/02/17 07:13:33;;;;;;;24.20;3.97;;;;;;;;;;5013548;28;20765;-78
2022/02/17 07:16:00;;;;;;;23.97;3.80;;;;;;;;;;5016739;28;20696;-78
2022/02/17 07:18:28;;;;;;;31.23;3.47;;;;;;;;;;5016401;28;20201;-77
2022/02/17 07:20:56;;;;;;;24.23;3.73;;;;;;;;;;5014889;28;20866;-79
2022/02/17 07:23:25;;;;;;;14.63;2.67;;;;;;;;;;5019554;28;20213;-78
2022/02/17 07:25:54;;;;;;;18.80;3.37;;;;;;;;;;5016874;28;20224;-78
2022/02/17 07:28:22;;;;;;;23.30;2.70;;;;;;;;;;5018382;28;20216;-77
2022/02/17 07:30:49;;;;;;;13.67;2.77;;;;;;;;;;5013725;28;20204;-77
2022/02/17 07:33:17;;;;;;;13.77;2.37;;;;;;;;;;5013497;28;20207;-78
2022/02/17 07:35:44;;;;;;;14.47;2.53;;;;;;;;;;5015365;28;20235;-78
2022/02/17 07:38:12;;;;;;;15.60;2.37;;;;;;;;;;5017281;28;20223;-77
2022/02/17 07:40:40;;;;;;;21.77;2.83;;;;;;;;;;5016731;28;20228;-77
2022/02/17 07:43:09;;;;;;;18.17;2.60;;;;;;;;;;5016721;28;20214;-78
2022/02/17 07:45:36;;;;;;;24.03;2.80;;;;;;;;;;5017122;28;20319;-77
2022/02/17 07:48:04;;;;;;;19.77;3.43;;;;;;;;;;5018255;28;20678;-77
2022/02/17 07:50:32;;;;;;;32.57;3.70;;;;;;;;;;5016200;28;20200;-77
2022/02/17 07:52:59;;;;;;;31.20;3.53;;;;;;;;;;5014568;28;20208;-78
2022/02/17 07:55:27;;;;;;;32.07;3.93;;;;;;;;;;5015884;28;20292;-78
2022/02/17 07:57:57;;;;;;;30.97;3.83;;;;;;;;;;5012369;28;20212;-78
2022/02/17 08:00:25;;;;;;;27.70;3.30;;;;;;;;;;5014524;28;20231;-79
2022/02/17 08:02:52;;;;;;;24.50;3.83;;;;;;;;;;5009921;28;20239;-77
2022/02/17 08:05:19;;;;;;;34.10;4.23;;;;;;;;;;5012665;28;20250;-77
2022/02/17 08:07:46;;;;;;;24.67;3.43;;;;;;;;;;5012073;28;20220;-78
2022/02/17 08:10:14;;;;;;;26.93;3.40;;;;;;;;;;5009751;28;20223;-77
2022/02/17 08:12:42;;;;;;;30.33;4.47;;;;;;;;;;5009097;28;20319;-78
2022/02/17 08:15:09;;;;;;;26.10;3.87;;;;;;;;;;5009902;28;20201;-78
2022/02/17 08:17:38;;;;;;;26.47;3.90;;;;;;;;;;5011800;28;20295;-78
2022/02/17 08:20:06;;;;;;;14.60;2.83;;;;;;;;;;5010735;28;20230;-78
2022/02/17 08:22:33;;;;;;;25.03;3.57;;;;;;;;;;5008220;28;20216;-78
2022/02/17 08:25:00;;;;;;;21.13;3.03;;;;;;;;;;5008510;28;20307;-78
2022/02/17 08:27:35;;;;;;;23.87;3.77;;;;;;;;;;5009277;28;20232;-78
2022/02/17 08:30:02;;;;;;;20.53;3.10;;;;;;;;;;5008207;28;20765;-78
2022/02/17 08:32:29;;;;;;;25.53;3.97;;;;;;;;;;5008947;28;20203;-78
2022/02/17 08:34:58;;;;;;;28.87;4.20;;;;;;;;;;5007794;28;20201;-78
2022/02/17 08:37:25;;;;;;;23.40;2.70;;;;;;;;;;5011248;28;20219;-79
2022/02/17 08:39:52;;;;;;;24.67;3.47;;;;;;;;;;5009178;28;20230;-78
2022/02/17 08:42:19;;;;;;;27.73;4.07;;;;;;;;;;5011966;28;20195;-79
2022/02/17 08:44:46;;;;;;;20.70;3.37;;;;;;;;;;5009404;28;20227;-77
2022/02/17 08:47:17;;;;;;;18.40;2.93;;;;;;;;;;5011609;28;20341;-78
2022/02/17 08:49:44;;;;;;;25.53;3.40;;;;;;;;;;5009806;28;20344;-78
2022/02/17 08:52:13;;;;;;;18.00;3.27;;;;;;;;;;5012101;28;20241;-80
2022/02/17 08:54:40;;;;;;;17.90;3.43;;;;;;;;;;5008899;28;20283;-78
2022/02/17 08:57:07;;;;;;;26.63;3.77;;;;;;;;;;5011076;28;20322;-77
2022/02/17 08:59:34;;;;;;;19.80;3.00;;;;;;;;;;5013147;28;20303;-79
2022/02/17 09:02:02;;;;;;;10.87;2.93;;;;;;;;;;5011420;28;20598;-78
2022/02/17 09:04:32;;;;;;;12.53;2.03;;;;;;;;;;5013306;28;20200;-78
2022/02/17 09:06:59;;;;;;;20.03;3.60;;;;;;;;;;5010533;28;20243;-78
2022/02/17 09:09:27;;;;;;;19.07;3.57;;;;;;;;;;5012968;28;20287;-78
2022/02/17 09:11:55;;;;;;;26.60;3.60;;;;;;;;;;5013388;28;20218;-79
2022/02/17 09:14:22;;;;;;;28.40;4.00;;;;;;;;;;5012659;28;20845;-78
2022/02/17 09:16:50;;;;;;;25.20;3.43;;;;;;;;;;5013014;28;20233;-78
2022/02/17 09:19:18;;;;;;;24.57;3.50;;;;;;;;;;5013454;28;20295;-79
2022/02/17 09:21:45;;;;;;;24.83;3.70;;;;;;;;;;5012676;28;20323;-79
2022/02/17 09:24:12;;;;;;;19.70;3.00;;;;;;;;;;5011404;28;20302;-77
2022/02/17 09:26:41;;;;;;;25.67;3.80;;;;;;;;;;5012731;28;20232;-79
2022/02/17 09:29:08;;;;;;;26.63;3.70;;;;;;;;;;5015244;28;20235;-78
2022/02/17 09:31:36;;;;;;;23.93;3.53;;;;;;;;;;5014655;28;20247;-79
2022/02/17 09:34:03;;;;;;;16.50;3.23;;;;;;;;;;5010975;28;20291;-79
2022/02/17 09:36:30;;;;;;;20.57;3.43;;;;;;;;;;5012656;28;20223;-79
2022/02/17 09:38:58;;;;;;;18.40;2.80;;;;;;;;;;5013591;28;20674;-79
2022/02/17 09:41:27;;;;;;;29.20;3.70;;;;;;;;;;5014158;28;20323;-79
2022/02/17 09:43:57;;;;;;;18.73;3.00;;;;;;;;;;5014863;28;20211;-78
2022/02/17 09:46:24;;;;;;;30.33;5.50;;;;;;;;;;5012906;28;20319;-79
2022/02/17 09:48:55;;;;;;;22.20;3.53;;;;;;;;;;5014982;28;20212;-80
2022/02/17 09:51:23;;;;;;;27.80;3.53;;;;;;;;;;5010865;28;20270;-79
2022/02/17 09:53:51;;;;;;;27.63;4.30;;;;;;;;;;5011199;28;20231;-79
2022/02/17 09:56:18;;;;;;;22.97;3.67;;;;;;;;;;5013694;28;20716;-79
2022/02/17 09:58:45;;;;;;;26.23;3.90;;;;;;;;;;5011636;28;20208;-79
2022/02/17 10:01:18;;;;;;;11.77;2.50;;;;;;;;;;5008901;28;20232;-78
2022/02/17 10:03:45;;;;;;;16.73;3.03;;;;;;;;;;5010965;28;20326;-78
2022/02/17 10:06:13;;;;;;;16.23;3.50;;;;;;;;;;5007363;28;20354;-79
2022/02/17 10:08:41;;;;;;;20.83;2.90;;;;;;;;;;5011182;28;20232;-78
2022/02/17 10:11:09;;;;;;;24.23;4.33;;;;;;;;;;5012199;28;20204;-78
2022/02/17 10:13:36;;;;;;;16.70;3.17;;;;;;;;;;5012982;28;20288;-78
2022/02/17 10:16:04;;;;;;;21.03;3.47;;;;;;;;;;5012596;28;20598;-79
2022/02/17 10:18:39;;;;;;;20.03;2.67;;;;;;;;;;5012219;28;20676;-79
2022/02/17 10:21:07;;;;;;;19.73;2.93;;;;;;;;;;5014356;28;20310;-80
2022/02/17 10:23:35;;;;;;;17.57;2.90;;;;;;;;;;5011013;28;20231;-78
2022/02/17 10:26:07;;;;;;;30.63;3.57;;;;;;;;;;5010953;28;20599;-79
2022/02/17 10:28:35;;;;;;;21.53;3.70;;;;;;;;;;5009364;28;20212;-78
2022/02/17 10:31:03;;;;;;;30.33;3.90;;;;;;;;;;5005440;28;20224;-79
2022/02/17 10:33:42;;;;;;;29.40;3.60;;;;;;;;;;5012489;28;20208;-77
2022/02/17 10:36:10;;;;;;;31.93;4.27;;;;;;;;;;5011492;28;20255;-78
2022/02/17 10:38:38;;;;;;;20.97;2.97;;;;;;;;;;5010304;28;20206;-79
2022/02/17 10:41:05;;;;;;;15.60;2.77;;;;;;;;;;5011376;28;20228;-79
2022/02/17 10:43:33;;;;;;;20.47;2.90;;;;;;;;;;5011426;28;20295;-78
2022/02/17 10:46:05;;;;;;;17.03;2.27;;;;;;;;;;5011245;28;20978;-78
2022/02/17 10:48:32;;;;;;;16.37;2.60;;;;;;;;;;5010282;28;20220;-78
2022/02/17 10:51:08;;;;;;;16.47;2.77;;;;;;;;;;5012260;28;20282;-79
2022/02/17 10:53:37;;;;;;;13.63;2.77;;;;;;;;;;5011183;28;20207;-77
2022/02/17 10:56:05;;;;;;;20.07;2.80;;;;;;;;;;5010432;28;20311;-79
2022/02/17 10:58:34;;;;;;;16.37;2.63;;;;;;;;;;5010843;28;20212;-78
2022/02/17 11:01:02;;;;;;;18.03;2.80;;;;;;;;;;5009455;28;20254;-79
2022/02/17 11:03:31;;;;;;;17.23;3.57;;;;;;;;;;5010012;28;20216;-78
2022/02/17 11:05:59;;;;;;;19.40;3.17;;;;;;;;;;5010302;28;20220;-78
2022/02/17 11:08:27;;;;;;;21.43;3.20;;;;;;;;;;5009477;28;20346;-78
2022/02/17 11:10:56;;;;;;;20.87;2.87;;;;;;;;;;5004822;28;20207;-79
2022/02/17 11:13:24;;;;;;;16.27;2.70;;;;;;;;;;5007118;28;20255;-78
2022/02/17 11:15:51;;;;;;;19.10;3.67;;;;;;;;;;5012348;28;20255;-78
2022/02/17 11:18:20;;;;;;;15.30;2.53;;;;;;;;;;5008117;28;20292;-78
2022/02/17 11:20:48;;;;;;;25.63;3.63;;;;;;;;;;5004562;28;20231;-79
2022/02/17 11:23:18;;;;;;;22.23;3.47;;;;;;;;;;5004627;28;20283;-79
2022/02/17 11:25:48;;;;;;;16.63;2.93;;;;;;;;;;4999475;28;20232;-78
2022/02/17 11:28:16;;;;;;;15.87;3.00;;;;;;;;;;5002083;28;20303;-78
2022/02/17 11:30:44;;;;;;;21.90;2.93;;;;;;;;;;5008294;28;20262;-79
2022/02/17 11:33:21;;;;;;;10.60;2.37;;;;;;;;;;5010031;28;20204;-79
2022/02/17 11:35:49;;;;;;;17.90;2.30;;;;;;;;;;5010723;28;20224;-79
2022/02/17 11:38:32;;;;;;;16.30;2.83;;;;;;;;;;5010455;28;20212;-78
2022/02/17 11:41:11;;;;;;;21.10;3.37;;;;;;;;;;5009381;28;20242;-78
2022/02/17 11:43:39;;;;;;;14.13;2.00;;;;;;;;;;5004422;28;20298;-78
2022/02/17 11:46:09;;;;;;;21.70;2.87;;;;;;;;;;5007118;28;20318;-78
2022/02/17 11:48:37;;;;;;;10.37;2.13;;;;;;;;;;5008613;28;20711;-78
2022/02/17 11:51:12;;;;;;;12.20;2.20;;;;;;;;;;5008366;28;20192;-78
2022/02/17 11:53:40;;;;;;;16.00;2.30;;;;;;;;;;5005722;28;20215;-79
2022/02/17 11:56:27;;;;;;;11.97;2.33;;;;;;;;;;5017918;28;20318;-78
2022/02/17 11:58:56;;;;;;;10.30;1.93;;;;;;;;;;5004077;28;20260;-78
2022/02/17 12:01:40;;;;;;;14.40;2.20;;;;;;;;;;5006918;28;20221;-78
2022/02/17 12:04:09;;;;;;;14.00;2.03;;;;;;;;;;5006220;28;20687;-77
2022/02/17 12:06:41;;;;;;;18.00;2.03;;;;;;;;;;5006872;28;20236;-78
2022/02/17 12:09:08;;;;;;;9.50;1.93;;;;;;;;;;5004191;28;20745;-78
2022/02/17 12:11:37;;;;;;;15.40;2.17;;;;;;;;;;5006687;28;20751;-77
2022/02/17 12:14:07;;;;;;;15.03;1.90;;;;;;;;;;5004859;28;20215;-78
2022/02/17 12:16:35;;;;;;;15.50;2.23;;;;;;;;;;5006249;28;20228;-78
2022/02/17 12:19:12;;;;;;;13.67;2.03;;;;;;;;;;5004677;28;20554;-78
2022/02/17 12:21:40;;;;;;;8.03;1.70;;;;;;;;;;5005508;28;20235;-78
2022/02/17 12:24:08;;;;;;;11.13;2.60;;;;;;;;;;5004227;28;20558;-78
2022/02/17 12:26:42;;;;;;;11.73;2.30;;;;;;;;;;5007179;28;20242;-78
2022/02/17 12:29:29;;;;;;;20.80;1.90;;;;;;;;;;5006298;28;20291;-78
2022/02/17 12:31:57;;;;;;;18.57;2.20;;;;;;;;;;5008499;28;20212;-77
2022/02/17 12:34:24;;;;;;;13.67;1.83;;;;;;;;;;5003565;28;20227;-78
2022/02/17 12:36:51;;;;;;;8.00;1.70;;;;;;;;;;5007967;28;20311;-78
2022/02/17 12:39:19;;;;;;;4.57;0.90;;;;;;;;;;5006324;28;20205;-77
2022/02/17 12:42:00;;;;;;;11.90;1.60;;;;;;;;;;5011502;28;20219;-78
2022/02/17 12:44:29;;;;;;;9.90;1.40;;;;;;;;;;5008656;28;20211;-78
2022/02/17 12:46:57;;;;;;;9.83;1.30;;;;;;;;;;5008594;28;20645;-78
2022/02/17 12:49:25;;;;;;;5.30;1.40;;;;;;;;;;5007168;28;20308;-78
2022/02/17 12:51:52;;;;;;;10.57;1.57;;;;;;;;;;5003977;28;20200;-78
2022/02/17 12:54:19;;;;;;;9.27;1.60;;;;;;;;;;5002034;28;20215;-78
2022/02/17 12:56:47;;;;;;;9.50;1.60;;;;;;;;;;4996542;28;20228;-78
2022/02/17 12:59:16;;;;;;;7.77;1.50;;;;;;;;;;5002293;28;20201;-78
2022/02/17 13:01:46;;;;;;;10.37;1.60;;;;;;;;;;4993237;28;20337;-78
2022/02/17 13:04:17;;;;;;;13.77;1.60;;;;;;;;;;5001459;28;20216;-78
2022/02/17 13:06:44;;;;;;;9.73;1.47;;;;;;;;;;5000581;28;20224;-79
2022/02/17 13:09:15;;;;;;;11.47;1.80;;;;;;;;;;5003716;28;20204;-78
2022/02/17 13:11:46;;;;;;;11.33;1.80;;;;;;;;;;5002176;28;20205;-78
2022/02/17 13:14:13;;;;;;;18.00;1.70;;;;;;;;;;5002810;28;20642;-78
2022/02/17 13:16:45;;;;;;;11.10;2.13;;;;;;;;;;5007663;28;20232;-78
2022/02/17 13:19:32;;;;;;;8.87;1.73;;;;;;;;;;5004914;28;20200;-78
2022/02/17 13:21:59;;;;;;;12.50;2.13;;;;;;;;;;5004212;28;20275;-78
2022/02/17 13:24:27;;;;;;;4.70;1.30;;;;;;;;;;5008471;28;20203;-78
2022/02/17 13:26:55;;;;;;;10.80;1.93;;;;;;;;;;5011144;28;20259;-78
2022/02/17 13:29:25;;;;;;;9.73;2.00;;;;;;;;;;5009570;28;20215;-78
2022/02/17 13:31:54;;;;;;;11.67;1.50;;;;;;;;;;5009343;28;20621;-79
2022/02/17 13:34:23;;;;;;;10.00;1.83;;;;;;;;;;5006958;28;20332;-79
2022/02/17 13:36:51;;;;;;;12.37;2.07;;;;;;;;;;5009004;28;21170;-79
2022/02/17 13:39:19;;;;;;;9.70;1.93;;;;;;;;;;5010487;28;20201;-78
2022/02/17 13:41:59;;;;;;;13.30;2.77;;;;;;;;;;5011675;28;20216;-78
2022/02/17 13:44:29;;;;;;;16.00;2.73;;;;;;;;;;5010858;28;20295;-78
2022/02/17 13:46:58;;;;;;;20.67;2.60;;;;;;;;;;5005676;28;20706;-78
2022/02/17 13:49:26;;;;;;;22.10;3.83;;;;;;;;;;5006747;28;20236;-79
2022/02/17 13:51:53;;;;;;;27.10;3.73;;;;;;;;;;5000428;28;20296;-78
2022/02/17 13:54:20;;;;;;;23.57;2.80;;;;;;;;;;5005144;28;20209;-78
2022/02/17 13:56:48;;;;;;;18.00;2.57;;;;;;;;;;4995197;28;20243;-78
2022/02/17 13:59:15;;;;;;;15.53;2.20;;;;;;;;;;5003560;28;20247;-78
2022/02/17 14:01:43;;;;;;;14.17;2.10;;;;;;;;;;5002124;28;20298;-79
2022/02/17 14:04:27;;;;;;;18.53;2.50;;;;;;;;;;4998612;28;20200;-78
2022/02/17 14:06:55;;;;;;;16.93;2.43;;;;;;;;;;5004029;28;20782;-78
2022/02/17 14:09:22;;;;;;;18.30;2.37;;;;;;;;;;5003991;28;20205;-79
2022/02/17 14:11:49;;;;;;;15.13;3.27;;;;;;;;;;5001830;28;20283;-78
2022/02/17 14:14:17;;;;;;;11.40;2.10;;;;;;;;;;5005461;28;20944;-78
2022/02/17 14:16:44;;;;;;;15.40;2.00;;;;;;;;;;5000078;28;20306;-78
2022/02/17 14:19:11;;;;;;;8.40;1.80;;;;;;;;;;5006039;28;20207;-78
2022/02/17 14:21:40;;;;;;;14.20;1.90;;;;;;;;;;5001340;28;20224;-78
2022/02/17 14:24:08;;;;;;;8.93;1.40;;;;;;;;;;5004819;28;20266;-78
2022/02/17 14:26:35;;;;;;;7.97;1.20;;;;;;;;;;5000866;28;20262;-80
2022/02/17 14:29:03;;;;;;;10.73;1.63;;;;;;;;;;5011690;28;20284;-80
2022/02/17 14:31:30;;;;;;;12.07;2.07;;;;;;;;;;5010574;28;20311;-80
2022/02/17 14:33:57;;;;;;;13.87;1.53;;;;;;;;;;5011669;28;20576;-81
2022/02/17 14:36:24;;;;;;;10.67;1.77;;;;;;;;;;5005255;28;20220;-81
2022/02/17 14:38:53;;;;;;;7.87;1.47;;;;;;;;;;5004866;28;20295;-81
2022/02/17 14:41:20;;;;;;;9.80;1.77;;;;;;;;;;5003916;28;20209;-81
2022/02/17 14:43:47;;;;;;;9.30;1.40;;;;;;;;;;5004424;28;20216;-80